Time;durP1;ratioP1;P1;durP2;ratioP2;P2;SDS_P1;SDS_P2;PMS_P1;PMS_P2;Temp;Humidity;BMP_temperature;BMP_pressure;BME280_temperature;BME280_humidity;BME280_pressure;Samples;Min_cycle;Max_cycle;Signal;HPM_P1;HPM_P2
2021/11/21 00:00:24;;;;;;;66.78;28.60;;;;;;;6.33;79.57;100260.47;8835097;33;20728;-75
2021/11/21 00:05:26;;;;;;;67.57;27.85;;;;;;;6.08;80.80;100269.19;8835666;33;20178;-74
2021/11/21 00:10:33;;;;;;;50.53;22.92;;;;;;;5.99;81.55;100272.47;8835297;33;21080;-74
2021/11/21 00:15:39;;;;;;;66.82;26.80;;;;;;;6.06;81.44;100262.25;8835378;33;21975;-74
2021/11/21 00:20:45;;;;;;;68.32;29.13;;;;;;;6.18;81.10;100256.13;8835200;33;20138;-75
2021/11/21 00:25:49;;;;;;;59.85;27.45;;;;;;;6.14;81.30;100235.94;8834654;33;20177;-75
2021/11/21 00:30:53;;;;;;;63.53;25.20;;;;;;;6.01;81.49;100232.38;8835079;33;20135;-75
2021/11/21 00:35:56;;;;;;;62.33;27.15;;;;;;;6.04;81.00;100230.34;8834529;33;20186;-75
2021/11/21 00:41:03;;;;;;;58.30;25.63;;;;;;;5.98;81.56;100208.53;8809390;33;20315;-75
2021/11/21 00:46:06;;;;;;;55.20;26.25;;;;;;;5.85;81.70;100209.34;8809216;33;20239;-75
2021/11/21 00:51:10;;;;;;;50.67;20.40;;;;;;;5.93;81.62;100206.19;8834521;33;20185;-74
2021/11/21 00:56:14;;;;;;;54.55;23.55;;;;;;;5.81;82.11;100206.97;8833990;33;20211;-74
2021/11/21 01:01:17;;;;;;;54.95;22.40;;;;;;;5.68;83.20;100202.44;8835286;33;20511;-74
2021/11/21 01:06:21;;;;;;;54.25;22.52;;;;;;;5.53;84.43;100202.53;8834695;33;20997;-75
2021/11/21 01:11:26;;;;;;;58.50;21.60;;;;;;;5.21;85.95;100200.06;8836321;33;20186;-75
2021/11/21 01:16:29;;;;;;;69.18;28.27;;;;;;;5.38;86.49;100183.91;8835780;33;20146;-75
2021/11/21 01:21:32;;;;;;;64.15;24.45;;;;;;;5.40;86.57;100187.34;8834448;33;20182;-75
2021/11/21 01:26:37;;;;;;;53.75;22.52;;;;;;;5.32;86.65;100183.44;8833565;33;20143;-74
2021/11/21 01:31:41;;;;;;;57.22;22.23;;;;;;;5.45;86.69;100179.03;8834120;33;20673;-74
2021/11/21 01:36:45;;;;;;;66.57;28.30;;;;;;;5.40;87.18;100167.81;8833518;33;20663;-74
2021/11/21 01:41:50;;;;;;;64.88;24.63;;;;;;;5.32;87.38;100156.78;8834377;33;20703;-75
2021/11/21 01:46:53;;;;;;;62.92;24.50;;;;;;;5.44;87.16;100154.22;8833773;33;20170;-74
2021/11/21 01:51:56;;;;;;;54.22;21.95;;;;;;;5.41;87.25;100149.09;8834458;33;20227;-75
2021/11/21 01:57:02;;;;;;;61.08;25.17;;;;;;;5.66;86.71;100139.53;8834509;33;20259;-74
2021/11/21 02:02:07;;;;;;;47.97;19.95;;;;;;;5.31;87.58;100137.28;8809530;33;20189;-75
2021/11/21 02:07:11;;;;;;;54.70;22.48;;;;;;;5.61;86.54;100128.31;8834327;33;20674;-75
2021/11/21 02:12:16;;;;;;;47.47;19.92;;;;;;;5.70;85.96;100114.38;8833924;33;20459;-74
2021/11/21 02:17:19;;;;;;;52.15;20.50;;;;;;;5.56;86.10;100101.09;8835471;33;20277;-74
2021/11/21 02:22:23;;;;;;;51.85;23.27;;;;;;;5.42;87.21;100092.19;8837856;33;20506;-74
2021/11/21 02:27:30;;;;;;;51.97;20.90;;;;;;;5.50;86.82;100091.69;8838344;33;20178;-74
2021/11/21 02:32:33;;;;;;;55.85;23.98;;;;;;;5.70;86.00;100087.72;8838178;33;20155;-75
2021/11/21 02:37:38;;;;;;;39.20;16.90;;;;;;;5.58;86.57;100078.72;8811995;33;20644;-75
2021/11/21 02:42:42;;;;;;;50.08;21.67;;;;;;;5.68;86.76;100057.69;8838319;33;20186;-74
2021/11/21 02:47:46;;;;;;;60.03;24.65;;;;;;;5.47;88.04;100060.78;8837503;33;20177;-75
2021/11/21 02:52:52;;;;;;;67.72;26.95;;;;;;;5.65;87.43;100050.75;8838258;33;20347;-74
2021/11/21 02:57:56;;;;;;;47.00;19.45;;;;;;;5.56;87.05;100063.78;8837776;33;20220;-74
2021/11/21 03:02:59;;;;;;;37.72;14.73;;;;;;;5.48;87.74;100043.81;8812650;33;20516;-74
2021/11/21 03:08:07;;;;;;;55.20;23.40;;;;;;;5.75;86.81;100036.78;8817108;33;20150;-74
2021/11/21 03:13:10;;;;;;;57.75;24.50;;;;;;;5.54;88.46;100042.59;8838638;33;21259;-74
2021/11/21 03:18:14;;;;;;;38.67;17.27;;;;;;;5.56;87.42;100034.50;8811848;33;20401;-74
2021/11/21 03:23:18;;;;;;;50.80;19.98;;;;;;;5.32;89.32;100032.50;8811596;33;20593;-74
2021/11/21 03:28:21;;;;;;;52.92;22.73;;;;;;;5.47;88.48;100030.63;8836986;33;20702;-74
2021/11/21 03:33:24;;;;;;;57.55;24.02;;;;;;;5.81;87.08;100025.72;8836424;33;20200;-74
2021/11/21 03:38:29;;;;;;;46.30;20.08;;;;;;;5.69;87.83;100024.72;8836153;33;20200;-74
2021/11/21 03:43:32;;;;;;;53.28;24.75;;;;;;;5.66;87.36;100023.13;8836395;33;20239;-74
2021/11/21 03:48:35;;;;;;;56.03;22.73;;;;;;;5.85;87.04;100028.09;8811201;33;20503;-75
2021/11/21 03:53:39;;;;;;;33.50;12.80;;;;;;;5.70;88.01;100015.78;8836827;33;21013;-74
2021/11/21 03:58:42;;;;;;;48.15;21.77;;;;;;;5.79;88.12;100016.97;8836256;33;20194;-75
2021/11/21 04:03:46;;;;;;;49.53;20.75;;;;;;;5.68;88.46;100015.88;8836374;33;20142;-75
2021/11/21 04:08:50;;;;;;;52.67;20.50;;;;;;;5.80;88.37;100008.88;8837187;33;20212;-74
2021/11/21 04:13:53;;;;;;;43.15;19.67;;;;;;;5.69;88.84;100006.06;8835873;33;20956;-75
2021/11/21 04:18:56;;;;;;;41.53;19.45;;;;;;;5.61;88.99;99995.91;8811025;33;20190;-74
2021/11/21 04:24:00;;;;;;;46.30;18.98;;;;;;;5.55;89.42;99995.50;8835661;33;20440;-74
2021/11/21 04:29:03;;;;;;;35.95;16.33;;;;;;;5.71;88.84;99999.69;8810377;33;20174;-74
2021/11/21 04:34:07;;;;;;;43.67;21.13;;;;;;;5.84;88.37;99983.75;8835775;33;20258;-75
2021/11/21 04:39:11;;;;;;;44.60;20.23;;;;;;;5.71;88.46;99964.19;8822583;33;20514;-74
2021/11/21 04:44:14;;;;;;;37.92;15.45;;;;;;;5.67;88.45;99960.00;8835426;33;21741;-75
2021/11/21 04:49:17;;;;;;;43.28;17.88;;;;;;;5.64;88.65;99957.56;8809914;33;20182;-75
2021/11/21 04:54:25;;;;;;;45.10;19.80;;;;;;;5.91;87.46;99946.84;8835186;33;20578;-75
2021/11/21 04:59:28;;;;;;;42.92;16.90;;;;;;;5.75;87.75;99939.03;8834794;33;21447;-75
2021/11/21 05:04:31;;;;;;;35.90;17.80;;;;;;;5.91;87.39;99945.03;8834635;33;20199;-75
2021/11/21 05:09:36;;;;;;;31.00;14.23;;;;;;;5.79;87.38;99932.56;8834512;33;20218;-75
2021/11/21 05:14:39;;;;;;;36.55;16.42;;;;;;;5.89;87.12;99938.09;8810164;33;20405;-76
2021/11/21 05:19:42;;;;;;;38.42;17.02;;;;;;;5.78;87.37;99940.63;8834291;33;21801;-76
2021/11/21 05:24:48;;;;;;;29.35;12.15;;;;;;;5.70;87.48;99939.38;8808767;33;20186;-74
2021/11/21 05:29:52;;;;;;;25.20;11.48;;;;;;;5.83;87.12;99949.19;8833891;33;20219;-74
2021/11/21 05:34:55;;;;;;;33.40;16.08;;;;;;;5.78;87.01;99941.47;8833629;33;20202;-75
2021/11/21 05:39:59;;;;;;;35.42;16.65;;;;;;;5.67;87.91;99947.53;8834039;33;20139;-75
2021/11/21 05:45:02;;;;;;;29.05;14.32;;;;;;;5.87;86.99;99937.34;8833618;33;21650;-76
2021/11/21 05:50:12;;;;;;;28.13;14.00;;;;;;;5.67;86.97;99923.56;8834842;33;20639;-76
2021/11/21 05:55:19;;;;;;;35.45;14.57;;;;;;;5.71;87.81;99919.75;8838909;33;20228;-75
2021/11/21 06:00:25;;;;;;;37.70;17.58;;;;;;;5.76;87.78;99911.44;8839500;33;20196;-75
2021/11/21 06:05:29;;;;;;;34.55;17.15;;;;;;;5.91;87.03;99904.19;8839534;33;20996;-75
2021/11/21 06:10:34;;;;;;;38.10;16.75;;;;;;;5.86;87.38;99900.97;8838958;33;20174;-76
2021/11/21 06:15:37;;;;;;;40.40;16.38;;;;;;;5.81;87.34;99903.09;8838455;33;20190;-76
2021/11/21 06:20:40;;;;;;;39.40;17.73;;;;;;;5.81;87.29;99906.63;8839084;33;20190;-75
2021/11/21 06:25:45;;;;;;;34.05;15.73;;;;;;;5.61;88.28;99902.66;8839216;33;20174;-75
2021/11/21 06:30:48;;;;;;;44.60;19.38;;;;;;;5.39;89.82;99911.25;8838264;33;20239;-74
2021/11/21 06:35:52;;;;;;;39.35;17.27;;;;;;;5.59;89.49;99906.38;8839691;33;20190;-75
2021/11/21 06:40:56;;;;;;;44.72;21.52;;;;;;;5.72;89.57;99897.44;8845388;33;20500;-76
2021/11/21 06:46:04;;;;;;;31.30;14.63;;;;;;;5.62;89.70;99896.41;8813070;33;20687;-76
2021/11/21 06:51:07;;;;;;;41.78;18.10;;;;;;;5.59;90.20;99899.25;8838455;33;20282;-76
2021/11/21 06:56:11;;;;;;;38.13;15.73;;;;;;;5.51;90.73;99912.22;8813436;33;20449;-76
2021/11/21 07:01:15;;;;;;;41.50;18.77;;;;;;;5.68;90.36;99917.28;8838245;33;20200;-76
2021/11/21 07:06:36;;;;;;;36.95;15.73;;;;;;;5.43;90.92;99910.09;8813017;33;20622;-76
2021/11/21 07:11:42;;;;;;;37.80;16.65;;;;;;;5.71;90.32;99929.56;8813973;33;20223;-76
2021/11/21 07:16:48;;;;;;;32.90;14.55;;;;;;;5.70;90.36;99925.16;8812378;33;20131;-75
2021/11/21 07:21:51;;;;;;;29.77;13.13;;;;;;;5.70;90.49;99914.50;8838760;33;20183;-75
2021/11/21 07:26:57;;;;;;;26.95;11.80;;;;;;;5.77;90.21;99921.13;8837853;33;20675;-76
2021/11/21 07:32:04;;;;;;;21.10;8.85;;;;;;;5.72;90.55;99917.91;8813129;33;20181;-76
2021/11/21 07:37:08;;;;;;;15.70;9.30;;;;;;;5.93;89.80;99920.94;8837613;33;20876;-76
2021/11/21 07:42:12;;;;;;;19.40;9.55;;;;;;;5.77;90.61;99928.28;8837607;33;20182;-75
2021/11/21 07:47:15;;;;;;;15.20;7.65;;;;;;;5.73;90.64;99928.50;8836372;33;20280;-76
2021/11/21 07:52:19;;;;;;;17.67;8.05;;;;;;;5.71;90.63;99937.53;8836114;33;20795;-75
2021/11/21 07:57:23;;;;;;;14.02;6.68;;;;;;;5.69;90.95;99937.63;8835726;33;20197;-75
2021/11/21 08:02:26;;;;;;;11.30;6.70;;;;;;;5.81;90.46;99919.94;8810840;33;20670;-75
2021/11/21 08:07:29;;;;;;;16.30;7.55;;;;;;;5.83;90.25;99934.03;8836001;33;20155;-76
2021/11/21 08:12:34;;;;;;;12.38;6.10;;;;;;;5.67;91.24;99939.53;8835867;33;20247;-75
2021/11/21 08:17:38;;;;;;;12.63;6.32;;;;;;;5.99;89.77;99946.31;8835503;33;20250;-76
2021/11/21 08:22:41;;;;;;;16.05;7.25;;;;;;;5.96;89.38;99939.38;8835716;33;20674;-75
2021/11/21 08:27:45;;;;;;;14.27;7.50;;;;;;;6.01;89.48;99947.06;8835612;33;20189;-76
2021/11/21 08:32:48;;;;;;;13.15;6.78;;;;;;;5.84;89.65;99957.09;8835766;33;20429;-75
2021/11/21 08:37:51;;;;;;;13.82;7.90;;;;;;;6.10;89.38;99951.75;8836130;33;20139;-75
2021/11/21 08:42:56;;;;;;;17.65;8.32;;;;;;;6.15;89.54;99955.81;8835206;33;20361;-75
2021/11/21 08:47:59;;;;;;;17.33;8.15;;;;;;;6.20;89.10;99957.28;8809481;33;21060;-75
2021/11/21 08:53:03;;;;;;;19.05;9.45;;;;;;;6.59;88.53;99965.19;8833701;33;20200;-75
2021/11/21 08:58:07;;;;;;;18.88;9.18;;;;;;;6.29;88.45;99954.84;8832899;33;20194;-74
2021/11/21 09:03:10;;;;;;;17.08;8.82;;;;;;;6.36;88.34;99963.25;8833108;33;20187;-74
2021/11/21 09:08:14;;;;;;;17.70;8.25;;;;;;;6.68;88.09;99969.00;8833060;33;20231;-75
2021/11/21 09:13:19;;;;;;;17.42;9.07;;;;;;;6.65;87.44;99971.03;8831959;33;20197;-75
2021/11/21 09:18:24;;;;;;;19.77;8.98;;;;;;;6.58;87.92;99973.28;8831663;33;20185;-75
2021/11/21 09:23:28;;;;;;;19.88;9.00;;;;;;;6.78;87.37;99978.06;8827579;33;20186;-75
2021/11/21 09:28:33;;;;;;;20.55;8.95;;;;;;;6.78;87.47;99980.72;8831472;33;20146;-75
2021/11/21 09:33:36;;;;;;;20.75;8.82;;;;;;;6.74;87.67;99984.56;8831121;33;20243;-75
2021/11/21 09:38:40;;;;;;;20.45;9.65;;;;;;;6.70;87.50;99975.09;8832445;33;21232;-74
2021/11/21 09:43:45;;;;;;;18.50;9.63;;;;;;;7.05;87.20;99974.41;8807429;33;20456;-75
2021/11/21 09:48:49;;;;;;;18.52;10.07;;;;;;;6.95;87.00;99965.34;8832732;33;20190;-75
2021/11/21 09:53:52;;;;;;;17.48;8.63;;;;;;;6.88;87.18;99962.25;8832839;33;20194;-75
2021/11/21 09:58:56;;;;;;;16.48;9.65;;;;;;;7.12;86.15;99959.63;8832724;33;20282;-75
2021/11/21 10:04:00;;;;;;;19.17;9.35;;;;;;;7.60;85.85;99951.59;8832620;33;20190;-74
2021/11/21 10:09:05;;;;;;;15.50;8.38;;;;;;;7.57;84.21;99950.97;8833028;33;20833;-76
2021/11/21 10:14:09;;;;;;;16.65;9.07;;;;;;;7.34;84.07;99955.38;8832720;33;20731;-75
2021/11/21 10:19:12;;;;;;;17.23;8.00;;;;;;;7.49;83.83;99959.59;8832203;33;20178;-75
2021/11/21 10:24:23;;;;;;;14.90;7.80;;;;;;;7.62;83.24;99957.66;8831293;33;20203;-74
2021/11/21 10:29:33;;;;;;;17.65;7.95;;;;;;;7.79;82.82;99955.53;8830949;33;20534;-75
2021/11/21 10:34:37;;;;;;;21.27;7.57;;;;;;;8.10;83.37;99954.91;8831171;33;20186;-75
2021/11/21 10:39:45;;;;;;;14.65;7.60;;;;;;;8.95;80.37;99950.91;8808790;33;21527;-74
2021/11/21 10:44:52;;;;;;;15.30;7.40;;;;;;;8.24;78.16;99940.44;8833584;33;20150;-75
2021/11/21 10:49:55;;;;;;;11.95;7.53;;;;;;;8.39;80.04;99952.63;8837298;33;20193;-75
2021/11/21 10:54:59;;;;;;;16.40;7.35;;;;;;;8.35;79.51;99948.47;8812378;33;20241;-74
2021/11/21 11:00:15;;;;;;;15.00;7.68;;;;;;;8.67;78.43;99945.13;8835370;33;20170;-75
2021/11/21 11:05:21;;;;;;;14.43;6.40;;;;;;;8.36;78.83;99955.56;8805506;33;20165;-74
2021/11/21 11:10:27;;;;;;;13.85;6.85;;;;;;;8.70;79.04;99958.25;8836423;33;20254;-75
2021/11/21 11:15:36;;;;;;;11.88;6.57;;;;;;;8.56;77.39;99956.69;8835773;33;21431;-75
2021/11/21 11:20:44;;;;;;;9.68;5.25;;;;;;;8.67;78.73;99954.97;8811099;33;20154;-75
2021/11/21 11:25:49;;;;;;;9.20;5.25;;;;;;;8.67;78.43;99946.94;8835242;33;20186;-75
2021/11/21 11:30:55;;;;;;;12.90;5.28;;;;;;;8.63;78.28;99954.34;8828513;33;20221;-75
2021/11/21 11:35:58;;;;;;;12.80;6.35;;;;;;;9.14;79.97;99961.00;8834117;33;20600;-75
2021/11/21 11:41:05;;;;;;;12.07;4.15;;;;;;;8.89;74.43;99954.94;8811158;33;20450;-75
2021/11/21 11:46:25;;;;;;;15.02;4.40;;;;;;;8.79;73.05;99959.34;8823619;33;20182;-75
2021/11/21 11:51:55;;;;;;;9.60;4.65;;;;;;;8.68;73.90;99946.81;8835702;33;20185;-75
2021/11/21 11:57:02;;;;;;;11.20;3.38;;;;;;;8.96;73.60;99952.63;8835227;33;20181;-75
2021/11/21 12:02:30;;;;;;;10.15;4.25;;;;;;;9.05;73.76;99967.94;8835660;33;20251;-75
2021/11/21 12:07:43;;;;;;;7.53;4.15;;;;;;;9.36;72.38;99965.44;8835941;33;20460;-75
2021/11/21 12:13:10;;;;;;;7.30;3.22;;;;;;;9.44;74.87;99971.03;8836101;33;20476;-75
2021/11/21 12:18:15;;;;;;;10.73;3.63;;;;;;;9.57;72.58;99957.44;8835280;33;20190;-75
2021/11/21 12:24:00;;;;;;;11.20;3.35;;;;;;;9.47;74.21;99958.19;8834721;33;20254;-76
2021/11/21 12:29:31;;;;;;;8.88;3.05;;;;;;;8.75;70.62;99952.50;8824095;33;20533;-76
2021/11/21 12:34:43;;;;;;;6.63;2.50;;;;;;;9.02;75.96;99955.66;8834270;33;20190;-76
2021/11/21 12:39:50;;;;;;;13.15;3.22;;;;;;;9.12;72.33;99952.22;8835196;33;20254;-76
2021/11/21 12:45:08;;;;;;;4.82;2.28;;;;;;;9.08;72.03;99946.28;8834383;33;20170;-75
2021/11/21 12:50:24;;;;;;;6.50;2.40;;;;;;;9.37;73.81;99954.56;8836071;33;20316;-76
2021/11/21 12:55:29;;;;;;;10.23;2.30;;;;;;;9.95;72.48;99956.91;8808799;33;20327;-76
2021/11/21 13:00:35;;;;;;;6.78;2.40;;;;;;;8.75;68.85;99953.38;8833672;33;20146;-75
2021/11/21 13:05:42;;;;;;;9.40;2.38;;;;;;;8.92;68.04;99957.38;8834614;33;20199;-75
2021/11/21 13:10:48;;;;;;;8.32;2.47;;;;;;;8.80;71.44;99956.56;8835909;33;20245;-76
2021/11/21 13:15:53;;;;;;;8.52;2.28;;;;;;;8.74;68.54;99956.16;8834141;33;20185;-75
2021/11/21 13:21:07;;;;;;;6.35;2.58;;;;;;;8.88;72.22;99958.59;8833806;33;20266;-76
2021/11/21 13:26:14;;;;;;;4.97;2.30;;;;;;;9.30;71.86;99966.81;8833519;33;20496;-75
2021/11/21 13:31:22;;;;;;;9.65;2.15;;;;;;;9.75;67.75;99961.25;8833950;33;21523;-75
2021/11/21 13:36:38;;;;;;;11.60;2.30;;;;;;;10.14;64.77;99964.22;8833115;33;20193;-75
2021/11/21 13:41:44;;;;;;;6.25;2.40;;;;;;;9.72;63.49;99962.34;8832771;33;20527;-75
2021/11/21 13:46:50;;;;;;;7.28;2.92;;;;;;;9.62;65.28;99965.94;8833274;33;20178;-75
2021/11/21 13:52:02;;;;;;;9.05;2.83;;;;;;;9.45;68.50;99970.88;8833637;33;22356;-75
2021/11/21 13:57:19;;;;;;;10.75;2.30;;;;;;;10.00;62.40;99970.78;8833301;33;20174;-75
2021/11/21 14:02:29;;;;;;;8.23;2.20;;;;;;;10.34;62.66;99971.44;8834305;33;21525;-75
2021/11/21 14:07:34;;;;;;;8.15;2.30;;;;;;;9.71;63.01;99974.06;8833107;33;20153;-75
2021/11/21 14:12:40;;;;;;;8.32;2.30;;;;;;;9.41;64.35;99982.84;8836278;33;20194;-75
2021/11/21 14:17:46;;;;;;;5.90;2.45;;;;;;;9.64;63.56;99980.94;8838366;33;20155;-75
2021/11/21 14:23:00;;;;;;;4.95;2.30;;;;;;;8.28;66.18;99989.22;8839430;33;20184;-75
2021/11/21 14:28:07;;;;;;;5.20;2.10;;;;;;;8.18;68.81;99994.44;8790082;33;20187;-75
2021/11/21 14:33:17;;;;;;;7.07;2.33;;;;;;;7.69;70.29;99998.19;8778843;33;20948;-75
2021/11/21 14:38:22;;;;;;;8.10;1.80;;;;;;;7.70;70.34;99995.38;8801840;33;20200;-74
2021/11/21 14:43:27;;;;;;;5.43;2.10;;;;;;;7.39;70.67;100001.31;8838265;33;20127;-75
2021/11/21 14:48:32;;;;;;;6.85;2.60;;;;;;;7.39;71.93;100007.50;8837929;33;20646;-75
2021/11/21 14:53:38;;;;;;;4.15;2.63;;;;;;;7.14;71.68;99999.59;8837313;33;20150;-75
2021/11/21 14:58:44;;;;;;;7.22;2.88;;;;;;;7.11;72.92;100007.84;8837516;33;21634;-75
2021/11/21 15:03:48;;;;;;;8.18;2.55;;;;;;;7.04;73.61;100013.59;8837261;33;20907;-75
2021/11/21 15:08:57;;;;;;;6.93;2.80;;;;;;;6.84;72.18;100023.00;8811869;33;20209;-75
2021/11/21 15:14:01;;;;;;;8.23;3.50;;;;;;;6.72;73.28;100018.56;8836702;33;20173;-75
2021/11/21 15:19:04;;;;;;;9.82;4.03;;;;;;;6.67;74.35;100034.03;8811465;33;20182;-75
2021/11/21 15:24:09;;;;;;;7.80;3.22;;;;;;;6.53;73.86;100032.34;8836490;33;20154;-75
2021/11/21 15:29:14;;;;;;;6.63;2.70;;;;;;;6.53;75.14;100043.00;8836582;33;20173;-76
2021/11/21 15:34:20;;;;;;;4.40;2.65;;;;;;;6.48;74.28;100038.94;8835665;33;20590;-76
2021/11/21 15:39:24;;;;;;;8.93;3.22;;;;;;;6.45;74.45;100053.34;8835643;33;21670;-76
2021/11/21 15:44:27;;;;;;;7.07;3.65;;;;;;;6.35;74.01;100049.59;8835257;33;20756;-76
2021/11/21 15:49:30;;;;;;;6.90;3.05;;;;;;;6.38;74.66;100060.06;8835915;33;20250;-75
2021/11/21 15:54:36;;;;;;;6.03;3.17;;;;;;;6.38;74.21;100057.41;8809997;33;21000;-75
2021/11/21 15:59:39;;;;;;;10.73;3.50;;;;;;;6.29;74.46;100066.88;8835158;33;20656;-75
2021/11/21 16:04:43;;;;;;;9.73;3.65;;;;;;;6.12;74.85;100069.84;8835452;33;20675;-76
2021/11/21 16:09:47;;;;;;;6.97;3.85;;;;;;;6.18;75.25;100072.09;8836124;33;20238;-76
2021/11/21 16:14:50;;;;;;;12.00;3.95;;;;;;;5.94;75.46;100074.59;8809413;33;21305;-76
2021/11/21 16:19:53;;;;;;;11.43;5.32;;;;;;;5.88;75.91;100077.69;8835246;33;20146;-76
2021/11/21 16:24:58;;;;;;;10.18;6.55;;;;;;;5.99;76.15;100076.97;8834785;33;20464;-76
2021/11/21 16:30:02;;;;;;;7.32;4.15;;;;;;;5.63;76.36;100087.28;8809719;33;20234;-76
2021/11/21 16:35:08;;;;;;;10.95;4.18;;;;;;;5.83;75.89;100095.78;8808448;33;20399;-76
2021/11/21 16:40:18;;;;;;;6.97;3.42;;;;;;;5.77;75.45;100096.19;8809264;33;20292;-75
2021/11/21 16:45:24;;;;;;;8.63;2.70;;;;;;;5.60;76.45;100105.28;8808550;33;20975;-76
2021/11/21 16:50:28;;;;;;;5.50;2.42;;;;;;;5.56;76.53;100109.94;8834886;33;20231;-76
2021/11/21 16:55:32;;;;;;;3.60;2.20;;;;;;;5.38;76.63;100119.97;8808440;33;20185;-76
2021/11/21 17:00:37;;;;;;;4.28;2.15;;;;;;;5.14;76.42;100119.72;8834276;33;20178;-76
2021/11/21 17:05:40;;;;;;;3.08;2.40;;;;;;;5.10;76.99;100122.66;8834189;33;20782;-76
2021/11/21 17:10:45;;;;;;;4.28;3.45;;;;;;;5.17;76.54;100129.31;8833936;33;20922;-76
2021/11/21 17:15:48;;;;;;;5.63;4.50;;;;;;;4.98;76.82;100126.91;8833724;33;20235;-76
2021/11/21 17:20:51;;;;;;;5.78;3.45;;;;;;;4.99;76.90;100145.50;8834134;33;20138;-76
2021/11/21 17:25:55;;;;;;;5.45;3.58;;;;;;;4.95;76.85;100154.56;8833161;33;20213;-76
2021/11/21 17:30:58;;;;;;;5.65;3.20;;;;;;;4.90;77.11;100155.81;8833416;33;20457;-76
2021/11/21 17:36:01;;;;;;;7.60;3.15;;;;;;;4.88;77.86;100161.22;8833038;33;20941;-76
2021/11/21 17:41:09;;;;;;;5.38;3.33;;;;;;;4.86;77.77;100170.25;8834513;33;21828;-76
2021/11/21 17:46:12;;;;;;;5.18;3.20;;;;;;;4.82;78.02;100174.91;8832817;33;20234;-75
